sensor_id;sensor_type;location;lat;lon;timestamp;temperature;humidity
4056;DHT22;2043;52.184;8.690;2022-12-05T00:03:45;2.40;99.90
4056;DHT22;2043;52.184;8.690;2022-12-05T00:06:12;2.50;99.90
4056;DHT22;2043;52.184;8.690;2022-12-05T00:08:39;2.50;99.90
4056;DHT22;2043;52.184;8.690;2022-12-05T00:11:14;2.40;99.90
4056;DHT22;2043;52.184;8.690;2022-12-05T00:13:42;2.40;99.90
4056;DHT22;2043;52.184;8.690;2022-12-05T00:16:11;2.40;99.90
4056;DHT22;2043;52.184;8.690;2022-12-05T00:18:38;2.40;99.90
4056;DHT22;2043;52.184;8.690;2022-12-05T00:21:06;2.30;99.90
4056;DHT22;2043;52.184;8.690;2022-12-05T00:23:33;2.40;99.90
4056;DHT22;2043;52.184;8.690;2022-12-05T00:26:03;2.40;99.90
4056;DHT22;2043;52.184;8.690;2022-12-05T00:28:32;2.40;99.90
4056;DHT22;2043;52.184;8.690;2022-12-05T00:31:04;2.40;99.90
4056;DHT22;2043;52.184;8.690;2022-12-05T00:33:31;2.50;99.90
4056;DHT22;2043;52.184;8.690;2022-12-05T00:36:03;2.40;99.90
4056;DHT22;2043;52.184;8.690;2022-12-05T00:38:30;2.40;99.90
4056;DHT22;2043;52.184;8.690;2022-12-05T00:41:11;2.40;99.90
4056;DHT22;2043;52.184;8.690;2022-12-05T00:43:38;2.40;99.90
4056;DHT22;2043;52.184;8.690;2022-12-05T00:46:11;2.40;99.90
4056;DHT22;2043;52.184;8.690;2022-12-05T00:48:39;2.50;99.90
4056;DHT22;2043;52.184;8.690;2022-12-05T00:51:12;2.50;99.90
4056;DHT22;2043;52.184;8.690;2022-12-05T00:53:40;2.40;99.90
4056;DHT22;2043;52.184;8.690;2022-12-05T00:56:09;2.40;99.90
4056;DHT22;2043;52.184;8.690;2022-12-05T00:58:37;2.40;99.90
4056;DHT22;2043;52.184;8.690;2022-12-05T01:01:09;2.40;99.90
4056;DHT22;2043;52.184;8.690;2022-12-05T01:03:37;2.40;99.90
4056;DHT22;2043;52.184;8.690;2022-12-05T01:06:05;2.40;99.90
4056;DHT22;2043;52.184;8.690;2022-12-05T01:08:33;2.50;99.90
4056;DHT22;2043;52.184;8.690;2022-12-05T01:11:01;2.50;99.90
4056;DHT22;2043;52.184;8.690;2022-12-05T01:13:28;2.50;99.90
4056;DHT22;2043;52.184;8.690;2022-12-05T01:18:23;2.50;99.90
4056;DHT22;2043;52.184;8.690;2022-12-05T01:20:51;2.50;99.90
4056;DHT22;2043;52.184;8.690;2022-12-05T01:23:18;2.40;99.90
4056;DHT22;2043;52.184;8.690;2022-12-05T01:25:47;2.40;99.90
4056;DHT22;2043;52.184;8.690;2022-12-05T01:28:15;2.40;99.90
4056;DHT22;2043;52.184;8.690;2022-12-05T01:30:48;2.40;99.90
4056;DHT22;2043;52.184;8.690;2022-12-05T01:33:16;2.40;99.90
4056;DHT22;2043;52.184;8.690;2022-12-05T01:35:43;2.50;99.90
4056;DHT22;2043;52.184;8.690;2022-12-05T01:38:11;2.50;99.90
4056;DHT22;2043;52.184;8.690;2022-12-05T01:40:38;2.50;99.90
4056;DHT22;2043;52.184;8.690;2022-12-05T01:43:17;2.50;99.90
4056;DHT22;2043;52.184;8.690;2022-12-05T01:45:44;2.50;99.90
4056;DHT22;2043;52.184;8.690;2022-12-05T01:48:20;2.50;99.90
4056;DHT22;2043;52.184;8.690;2022-12-05T01:50:48;2.50;99.90
4056;DHT22;2043;52.184;8.690;2022-12-05T01:53:16;2.50;99.90
4056;DHT22;2043;52.184;8.690;2022-12-05T01:55:45;2.40;99.90
4056;DHT22;2043;52.184;8.690;2022-12-05T01:58:14;2.40;99.90
4056;DHT22;2043;52.184;8.690;2022-12-05T02:00:42;2.40;99.90
4056;DHT22;2043;52.184;8.690;2022-12-05T02:03:14;2.40;99.90
4056;DHT22;2043;52.184;8.690;2022-12-05T02:05:43;2.40;99.90
4056;DHT22;2043;52.184;8.690;2022-12-05T02:08:11;2.50;99.90
4056;DHT22;2043;52.184;8.690;2022-12-05T02:10:51;2.40;99.90
4056;DHT22;2043;52.184;8.690;2022-12-05T02:19:46;2.50;99.90
4056;DHT22;2043;52.184;8.690;2022-12-05T02:30:20;2.50;99.90
4056;DHT22;2043;52.184;8.690;2022-12-05T02:36:02;2.50;99.90
4056;DHT22;2043;52.184;8.690;2022-12-05T02:38:40;2.50;99.90
4056;DHT22;2043;52.184;8.690;2022-12-05T02:46:29;2.50;99.90
4056;DHT22;2043;52.184;8.690;2022-12-05T02:49:04;2.50;99.90
4056;DHT22;2043;52.184;8.690;2022-12-05T02:51:36;2.50;99.90
4056;DHT22;2043;52.184;8.690;2022-12-05T02:54:07;2.60;99.90
4056;DHT22;2043;52.184;8.690;2022-12-05T02:56:36;2.60;99.90
4056;DHT22;2043;52.184;8.690;2022-12-05T02:59:03;2.60;99.90
4056;DHT22;2043;52.184;8.690;2022-12-05T03:01:31;2.60;99.90
4056;DHT22;2043;52.184;8.690;2022-12-05T03:04:01;2.50;99.90
4056;DHT22;2043;52.184;8.690;2022-12-05T03:06:44;2.50;99.90
4056;DHT22;2043;52.184;8.690;2022-12-05T03:09:18;2.50;99.90
4056;DHT22;2043;52.184;8.690;2022-12-05T03:14:22;2.60;99.90
4056;DHT22;2043;52.184;8.690;2022-12-05T03:16:53;2.60;99.90
4056;DHT22;2043;52.184;8.690;2022-12-05T03:24:51;2.60;99.90
4056;DHT22;2043;52.184;8.690;2022-12-05T03:27:36;2.70;99.90
4056;DHT22;2043;52.184;8.690;2022-12-05T03:30:07;2.60;99.90
4056;DHT22;2043;52.184;8.690;2022-12-05T03:32:56;2.60;99.90
4056;DHT22;2043;52.184;8.690;2022-12-05T03:40:53;2.70;99.90
4056;DHT22;2043;52.184;8.690;2022-12-05T03:46:25;2.60;99.90
4056;DHT22;2043;52.184;8.690;2022-12-05T03:51:51;2.60;99.90
4056;DHT22;2043;52.184;8.690;2022-12-05T03:54:48;2.60;99.90
4056;DHT22;2043;52.184;8.690;2022-12-05T04:00:08;2.70;99.90
4056;DHT22;2043;52.184;8.690;2022-12-05T04:03:03;2.60;99.90
4056;DHT22;2043;52.184;8.690;2022-12-05T04:05:51;2.60;99.90
4056;DHT22;2043;52.184;8.690;2022-12-05T04:08:29;2.60;99.90
4056;DHT22;2043;52.184;8.690;2022-12-05T04:11:01;2.70;99.90
4056;DHT22;2043;52.184;8.690;2022-12-05T04:13:33;2.70;99.90
4056;DHT22;2043;52.184;8.690;2022-12-05T04:16:12;2.70;99.90
4056;DHT22;2043;52.184;8.690;2022-12-05T04:19:11;2.80;99.90
4056;DHT22;2043;52.184;8.690;2022-12-05T04:21:44;2.70;99.90
4056;DHT22;2043;52.184;8.690;2022-12-05T04:24:20;2.70;99.90
4056;DHT22;2043;52.184;8.690;2022-12-05T04:28:03;2.70;99.90
4056;DHT22;2043;52.184;8.690;2022-12-05T04:30:09;2.70;99.90
4056;DHT22;2043;52.184;8.690;2022-12-05T04:32:39;2.70;99.90
4056;DHT22;2043;52.184;8.690;2022-12-05T04:35:16;2.70;99.90
4056;DHT22;2043;52.184;8.690;2022-12-05T04:37:47;2.70;99.90
4056;DHT22;2043;52.184;8.690;2022-12-05T04:40:22;2.80;99.90
4056;DHT22;2043;52.184;8.690;2022-12-05T04:42:53;2.80;99.90
4056;DHT22;2043;52.184;8.690;2022-12-05T04:45:22;2.80;99.90
4056;DHT22;2043;52.184;8.690;2022-12-05T04:47:56;2.80;99.90
4056;DHT22;2043;52.184;8.690;2022-12-05T04:50:27;2.80;99.90
4056;DHT22;2043;52.184;8.690;2022-12-05T04:52:56;2.90;99.90
4056;DHT22;2043;52.184;8.690;2022-12-05T04:55:24;2.80;99.90
4056;DHT22;2043;52.184;8.690;2022-12-05T04:58:07;2.80;99.90
4056;DHT22;2043;52.184;8.690;2022-12-05T05:00:49;2.90;99.90
4056;DHT22;2043;52.184;8.690;2022-12-05T05:03:26;2.80;99.90
4056;DHT22;2043;52.184;8.690;2022-12-05T05:05:55;2.80;99.90
4056;DHT22;2043;52.184;8.690;2022-12-05T05:08:26;2.80;99.90
4056;DHT22;2043;52.184;8.690;2022-12-05T05:11:03;2.80;99.90
4056;DHT22;2043;52.184;8.690;2022-12-05T05:13:32;2.90;99.90
4056;DHT22;2043;52.184;8.690;2022-12-05T05:18:26;2.70;99.90
4056;DHT22;2043;52.184;8.690;2022-12-05T05:20:52;2.80;99.90
4056;DHT22;2043;52.184;8.690;2022-12-05T05:23:19;2.80;99.90
4056;DHT22;2043;52.184;8.690;2022-12-05T05:25:54;2.80;99.90
4056;DHT22;2043;52.184;8.690;2022-12-05T05:28:21;2.90;99.90
4056;DHT22;2043;52.184;8.690;2022-12-05T05:30:48;2.90;99.90
4056;DHT22;2043;52.184;8.690;2022-12-05T05:33:15;2.90;99.90
4056;DHT22;2043;52.184;8.690;2022-12-05T05:38:09;2.80;99.90
4056;DHT22;2043;52.184;8.690;2022-12-05T05:40:36;2.80;99.90
4056;DHT22;2043;52.184;8.690;2022-12-05T05:43:03;2.80;99.90
4056;DHT22;2043;52.184;8.690;2022-12-05T05:45:30;2.80;99.90
4056;DHT22;2043;52.184;8.690;2022-12-05T05:47:57;2.80;99.90
4056;DHT22;2043;52.184;8.690;2022-12-05T05:50:24;2.70;99.90
4056;DHT22;2043;52.184;8.690;2022-12-05T05:52:50;2.80;99.90
4056;DHT22;2043;52.184;8.690;2022-12-05T05:55:17;2.80;99.90
4056;DHT22;2043;52.184;8.690;2022-12-05T05:57:45;2.80;99.90
4056;DHT22;2043;52.184;8.690;2022-12-05T06:00:12;2.80;99.90
4056;DHT22;2043;52.184;8.690;2022-12-05T06:05:07;2.90;99.90
4056;DHT22;2043;52.184;8.690;2022-12-05T06:07:34;2.80;99.90
4056;DHT22;2043;52.184;8.690;2022-12-05T06:10:00;2.80;99.90
4056;DHT22;2043;52.184;8.690;2022-12-05T06:12:28;2.90;99.90
4056;DHT22;2043;52.184;8.690;2022-12-05T06:14:54;2.90;99.90
4056;DHT22;2043;52.184;8.690;2022-12-05T06:19:48;2.80;99.90
4056;DHT22;2043;52.184;8.690;2022-12-05T06:22:15;2.80;99.90
4056;DHT22;2043;52.184;8.690;2022-12-05T06:24:42;2.90;99.90
4056;DHT22;2043;52.184;8.690;2022-12-05T06:29:36;2.90;99.90
4056;DHT22;2043;52.184;8.690;2022-12-05T06:32:03;2.80;99.90
4056;DHT22;2043;52.184;8.690;2022-12-05T06:34:30;2.80;99.90
4056;DHT22;2043;52.184;8.690;2022-12-05T06:37:01;2.80;99.90
4056;DHT22;2043;52.184;8.690;2022-12-05T06:41:55;2.70;99.90
4056;DHT22;2043;52.184;8.690;2022-12-05T06:44:22;2.80;99.90
4056;DHT22;2043;52.184;8.690;2022-12-05T06:46:53;2.70;99.90
4056;DHT22;2043;52.184;8.690;2022-12-05T06:49:21;2.70;99.90
4056;DHT22;2043;52.184;8.690;2022-12-05T06:54:22;2.80;99.90
4056;DHT22;2043;52.184;8.690;2022-12-05T06:56:48;2.70;99.90
4056;DHT22;2043;52.184;8.690;2022-12-05T07:01:42;2.80;99.90
4056;DHT22;2043;52.184;8.690;2022-12-05T07:04:15;2.90;99.90
4056;DHT22;2043;52.184;8.690;2022-12-05T07:06:43;2.90;99.90
4056;DHT22;2043;52.184;8.690;2022-12-05T07:09:18;2.80;99.90
4056;DHT22;2043;52.184;8.690;2022-12-05T07:11:49;2.90;99.90
4056;DHT22;2043;52.184;8.690;2022-12-05T07:14:16;2.90;99.90
4056;DHT22;2043;52.184;8.690;2022-12-05T07:17:03;2.90;99.90
4056;DHT22;2043;52.184;8.690;2022-12-05T07:19:30;2.90;99.90
4056;DHT22;2043;52.184;8.690;2022-12-05T07:21:57;2.90;99.90
4056;DHT22;2043;52.184;8.690;2022-12-05T07:24:24;2.80;99.90
4056;DHT22;2043;52.184;8.690;2022-12-05T07:26:51;2.90;99.90
4056;DHT22;2043;52.184;8.690;2022-12-05T07:29:18;2.90;99.90
4056;DHT22;2043;52.184;8.690;2022-12-05T07:31:44;2.90;99.90
4056;DHT22;2043;52.184;8.690;2022-12-05T07:34:11;2.80;99.90
4056;DHT22;2043;52.184;8.690;2022-12-05T07:36:39;2.80;99.90
4056;DHT22;2043;52.184;8.690;2022-12-05T07:41:33;2.70;99.90
4056;DHT22;2043;52.184;8.690;2022-12-05T07:44:01;2.70;99.90
4056;DHT22;2043;52.184;8.690;2022-12-05T07:46:28;2.80;99.90
4056;DHT22;2043;52.184;8.690;2022-12-05T07:48:56;2.60;99.90
4056;DHT22;2043;52.184;8.690;2022-12-05T07:53:51;2.40;99.90
4056;DHT22;2043;52.184;8.690;2022-12-05T07:58:47;2.40;99.90
4056;DHT22;2043;52.184;8.690;2022-12-05T08:01:15;2.40;99.90
4056;DHT22;2043;52.184;8.690;2022-12-05T08:03:43;2.40;99.90
4056;DHT22;2043;52.184;8.690;2022-12-05T08:06:14;2.30;99.90
4056;DHT22;2043;52.184;8.690;2022-12-05T08:08:41;2.30;99.90
4056;DHT22;2043;52.184;8.690;2022-12-05T08:11:14;2.30;99.90
4056;DHT22;2043;52.184;8.690;2022-12-05T08:13:41;2.30;99.90
4056;DHT22;2043;52.184;8.690;2022-12-05T08:16:13;2.30;99.90
4056;DHT22;2043;52.184;8.690;2022-12-05T08:18:41;2.30;99.90
4056;DHT22;2043;52.184;8.690;2022-12-05T08:21:14;2.30;99.90
4056;DHT22;2043;52.184;8.690;2022-12-05T08:23:41;2.40;99.90
4056;DHT22;2043;52.184;8.690;2022-12-05T08:26:14;2.40;99.90
4056;DHT22;2043;52.184;8.690;2022-12-05T08:28:42;2.40;99.90
4056;DHT22;2043;52.184;8.690;2022-12-05T08:31:12;2.40;99.90
4056;DHT22;2043;52.184;8.690;2022-12-05T08:33:39;2.40;99.90
4056;DHT22;2043;52.184;8.690;2022-12-05T08:36:09;2.30;99.90
4056;DHT22;2043;52.184;8.690;2022-12-05T08:38:36;2.40;99.90
4056;DHT22;2043;52.184;8.690;2022-12-05T08:41:04;2.40;99.90
4056;DHT22;2043;52.184;8.690;2022-12-05T08:43:32;2.40;99.90
4056;DHT22;2043;52.184;8.690;2022-12-05T08:46:00;2.40;99.90
4056;DHT22;2043;52.184;8.690;2022-12-05T08:48:28;2.40;99.90
4056;DHT22;2043;52.184;8.690;2022-12-05T08:50:55;2.40;99.90
4056;DHT22;2043;52.184;8.690;2022-12-05T08:53:23;2.40;99.90
4056;DHT22;2043;52.184;8.690;2022-12-05T08:55:50;2.40;99.90
4056;DHT22;2043;52.184;8.690;2022-12-05T08:58:16;2.40;99.90
4056;DHT22;2043;52.184;8.690;2022-12-05T09:00:43;2.40;99.90
4056;DHT22;2043;52.184;8.690;2022-12-05T09:03:10;2.40;99.90
4056;DHT22;2043;52.184;8.690;2022-12-05T09:05:38;2.40;99.90
4056;DHT22;2043;52.184;8.690;2022-12-05T09:08:04;2.40;99.90
4056;DHT22;2043;52.184;8.690;2022-12-05T09:10:31;2.40;99.90
4056;DHT22;2043;52.184;8.690;2022-12-05T09:15:25;2.30;99.90
4056;DHT22;2043;52.184;8.690;2022-12-05T09:17:52;2.30;99.90
4056;DHT22;2043;52.184;8.690;2022-12-05T09:20:19;2.30;99.90
4056;DHT22;2043;52.184;8.690;2022-12-05T09:22:46;2.20;99.90
4056;DHT22;2043;52.184;8.690;2022-12-05T09:25:12;2.20;99.90
4056;DHT22;2043;52.184;8.690;2022-12-05T09:27:39;2.20;99.90
4056;DHT22;2043;52.184;8.690;2022-12-05T09:30:07;2.10;99.90
4056;DHT22;2043;52.184;8.690;2022-12-05T09:32:34;2.10;99.90
4056;DHT22;2043;52.184;8.690;2022-12-05T09:35:01;2.10;99.90
4056;DHT22;2043;52.184;8.690;2022-12-05T09:40:06;2.10;99.90
4056;DHT22;2043;52.184;8.690;2022-12-05T09:42:38;2.10;99.90
4056;DHT22;2043;52.184;8.690;2022-12-05T09:45:28;2.10;99.90
4056;DHT22;2043;52.184;8.690;2022-12-05T09:55:41;2.30;99.90
4056;DHT22;2043;52.184;8.690;2022-12-05T10:00:45;2.30;99.90
4056;DHT22;2043;52.184;8.690;2022-12-05T10:03:24;2.30;99.90
4056;DHT22;2043;52.184;8.690;2022-12-05T10:09:00;2.30;99.90
4056;DHT22;2043;52.184;8.690;2022-12-05T10:11:40;2.30;99.90
4056;DHT22;2043;52.184;8.690;2022-12-05T10:17:20;2.30;99.90
4056;DHT22;2043;52.184;8.690;2022-12-05T10:19:51;2.30;99.90
4056;DHT22;2043;52.184;8.690;2022-12-05T10:22:27;2.30;99.90
4056;DHT22;2043;52.184;8.690;2022-12-05T10:25:01;2.40;99.90
4056;DHT22;2043;52.184;8.690;2022-12-05T10:27:35;2.40;99.90
4056;DHT22;2043;52.184;8.690;2022-12-05T10:32:52;2.40;99.90
4056;DHT22;2043;52.184;8.690;2022-12-05T10:35:26;2.50;99.90
4056;DHT22;2043;52.184;8.690;2022-12-05T10:37:57;2.50;99.90
4056;DHT22;2043;52.184;8.690;2022-12-05T10:40:37;2.60;99.90
4056;DHT22;2043;52.184;8.690;2022-12-05T10:43:05;2.60;99.90
4056;DHT22;2043;52.184;8.690;2022-12-05T10:45:42;2.70;99.90
4056;DHT22;2043;52.184;8.690;2022-12-05T10:48:12;2.70;99.90
4056;DHT22;2043;52.184;8.690;2022-12-05T10:50:40;2.70;99.90
4056;DHT22;2043;52.184;8.690;2022-12-05T10:53:13;2.70;99.90
4056;DHT22;2043;52.184;8.690;2022-12-05T10:55:43;2.70;99.90
4056;DHT22;2043;52.184;8.690;2022-12-05T10:58:30;2.70;99.90
4056;DHT22;2043;52.184;8.690;2022-12-05T11:01:07;2.70;99.90
4056;DHT22;2043;52.184;8.690;2022-12-05T11:03:37;2.60;99.90
4056;DHT22;2043;52.184;8.690;2022-12-05T11:06:18;2.60;99.90
4056;DHT22;2043;52.184;8.690;2022-12-05T11:14:31;2.60;99.90
4056;DHT22;2043;52.184;8.690;2022-12-05T11:17:01;2.60;99.90
4056;DHT22;2043;52.184;8.690;2022-12-05T11:21:58;2.70;99.90
4056;DHT22;2043;52.184;8.690;2022-12-05T11:26:55;2.60;99.90
4056;DHT22;2043;52.184;8.690;2022-12-05T11:29:35;2.50;99.90
4056;DHT22;2043;52.184;8.690;2022-12-05T11:32:05;2.50;99.90
4056;DHT22;2043;52.184;8.690;2022-12-05T11:37:27;2.50;99.90
4056;DHT22;2043;52.184;8.690;2022-12-05T11:39:56;2.50;99.90
4056;DHT22;2043;52.184;8.690;2022-12-05T11:50:42;2.70;99.90
4056;DHT22;2043;52.184;8.690;2022-12-05T11:56:03;2.70;99.90
4056;DHT22;2043;52.184;8.690;2022-12-05T12:04:23;2.90;99.90
4056;DHT22;2043;52.184;8.690;2022-12-05T12:12:32;2.60;99.90
4056;DHT22;2043;52.184;8.690;2022-12-05T12:17:59;2.50;99.90
4056;DHT22;2043;52.184;8.690;2022-12-05T12:20:56;2.50;99.90
4056;DHT22;2043;52.184;8.690;2022-12-05T12:34:23;2.60;99.90
4056;DHT22;2043;52.184;8.690;2022-12-05T12:36:54;2.60;99.90
4056;DHT22;2043;52.184;8.690;2022-12-05T12:45:13;2.60;99.90
4056;DHT22;2043;52.184;8.690;2022-12-05T12:50:33;2.50;99.90
4056;DHT22;2043;52.184;8.690;2022-12-05T12:58:42;2.50;99.90
4056;DHT22;2043;52.184;8.690;2022-12-05T13:03:56;2.50;99.90
4056;DHT22;2043;52.184;8.690;2022-12-05T13:09:45;2.50;99.90
4056;DHT22;2043;52.184;8.690;2022-12-05T13:12:23;2.50;99.90
4056;DHT22;2043;52.184;8.690;2022-12-05T13:14:59;2.50;99.90
4056;DHT22;2043;52.184;8.690;2022-12-05T13:17:28;2.50;99.90
4056;DHT22;2043;52.184;8.690;2022-12-05T13:19:56;2.50;99.90
4056;DHT22;2043;52.184;8.690;2022-12-05T13:22:24;2.60;99.90
4056;DHT22;2043;52.184;8.690;2022-12-05T13:24:53;2.60;99.90
4056;DHT22;2043;52.184;8.690;2022-12-05T13:27:25;2.50;99.90
4056;DHT22;2043;52.184;8.690;2022-12-05T13:29:58;2.60;99.90
4056;DHT22;2043;52.184;8.690;2022-12-05T13:32:34;2.60;99.90
4056;DHT22;2043;52.184;8.690;2022-12-05T13:37:35;2.60;99.90
4056;DHT22;2043;52.184;8.690;2022-12-05T13:40:29;2.60;99.90
4056;DHT22;2043;52.184;8.690;2022-12-05T13:43:20;2.60;99.90
4056;DHT22;2043;52.184;8.690;2022-12-05T13:48:27;2.50;99.90
4056;DHT22;2043;52.184;8.690;2022-12-05T13:51:06;2.50;99.90
4056;DHT22;2043;52.184;8.690;2022-12-05T13:53:40;2.60;99.90
4056;DHT22;2043;52.184;8.690;2022-12-05T13:58:52;2.70;99.90
4056;DHT22;2043;52.184;8.690;2022-12-05T14:03:56;2.50;99.90
4056;DHT22;2043;52.184;8.690;2022-12-05T14:14:58;2.50;99.90
4056;DHT22;2043;52.184;8.690;2022-12-05T14:17:41;2.50;99.90
4056;DHT22;2043;52.184;8.690;2022-12-05T14:23:14;2.50;99.90
4056;DHT22;2043;52.184;8.690;2022-12-05T14:34:15;2.50;99.90
4056;DHT22;2043;52.184;8.690;2022-12-05T14:42:37;2.50;99.90
4056;DHT22;2043;52.184;8.690;2022-12-05T14:47:52;2.20;99.90
4056;DHT22;2043;52.184;8.690;2022-12-05T14:50:22;2.10;99.90
4056;DHT22;2043;52.184;8.690;2022-12-05T14:58:28;2.00;99.90
4056;DHT22;2043;52.184;8.690;2022-12-05T15:06:25;2.10;99.90
4056;DHT22;2043;52.184;8.690;2022-12-05T15:08:55;2.20;99.90
4056;DHT22;2043;52.184;8.690;2022-12-05T15:11:42;2.20;99.90
4056;DHT22;2043;52.184;8.690;2022-12-05T15:14:19;2.20;99.90
4056;DHT22;2043;52.184;8.690;2022-12-05T15:16:49;2.10;99.90
4056;DHT22;2043;52.184;8.690;2022-12-05T15:19:36;2.10;99.90
4056;DHT22;2043;52.184;8.690;2022-12-05T15:22:08;2.20;99.90
4056;DHT22;2043;52.184;8.690;2022-12-05T15:24:38;2.10;99.90
4056;DHT22;2043;52.184;8.690;2022-12-05T15:27:09;2.10;99.90
4056;DHT22;2043;52.184;8.690;2022-12-05T15:29:38;2.20;99.90
4056;DHT22;2043;52.184;8.690;2022-12-05T15:32:15;2.20;99.90
4056;DHT22;2043;52.184;8.690;2022-12-05T15:35:08;2.20;99.90
4056;DHT22;2043;52.184;8.690;2022-12-05T15:38:20;2.20;99.90
4056;DHT22;2043;52.184;8.690;2022-12-05T15:43:29;2.00;99.90
4056;DHT22;2043;52.184;8.690;2022-12-05T15:46:22;2.00;99.90
4056;DHT22;2043;52.184;8.690;2022-12-05T15:48:55;1.80;99.90
4056;DHT22;2043;52.184;8.690;2022-12-05T15:51:32;1.80;99.90
4056;DHT22;2043;52.184;8.690;2022-12-05T15:54:10;2.00;99.90
4056;DHT22;2043;52.184;8.690;2022-12-05T15:56:41;2.00;99.90
4056;DHT22;2043;52.184;8.690;2022-12-05T15:59:16;2.00;99.90
4056;DHT22;2043;52.184;8.690;2022-12-05T16:01:48;2.10;99.90
4056;DHT22;2043;52.184;8.690;2022-12-05T16:04:35;1.90;99.90
4056;DHT22;2043;52.184;8.690;2022-12-05T16:07:08;2.00;99.90
4056;DHT22;2043;52.184;8.690;2022-12-05T16:09:40;1.90;99.90
4056;DHT22;2043;52.184;8.690;2022-12-05T16:12:33;2.00;99.90
4056;DHT22;2043;52.184;8.690;2022-12-05T16:15:24;2.10;99.90
4056;DHT22;2043;52.184;8.690;2022-12-05T16:17:58;1.80;99.90
4056;DHT22;2043;52.184;8.690;2022-12-05T16:20:29;1.80;99.90
4056;DHT22;2043;52.184;8.690;2022-12-05T16:23:20;1.70;99.90
4056;DHT22;2043;52.184;8.690;2022-12-05T16:25:51;1.40;99.90
4056;DHT22;2043;52.184;8.690;2022-12-05T16:28:20;1.50;99.90
4056;DHT22;2043;52.184;8.690;2022-12-05T16:30:56;1.60;99.90
4056;DHT22;2043;52.184;8.690;2022-12-05T16:33:24;1.70;99.90
4056;DHT22;2043;52.184;8.690;2022-12-05T16:35:52;1.70;99.90
4056;DHT22;2043;52.184;8.690;2022-12-05T16:38:22;1.80;99.90
4056;DHT22;2043;52.184;8.690;2022-12-05T16:45:51;1.90;99.90
4056;DHT22;2043;52.184;8.690;2022-12-05T16:48:25;2.10;99.90
4056;DHT22;2043;52.184;8.690;2022-12-05T16:53:40;2.10;99.90
4056;DHT22;2043;52.184;8.690;2022-12-05T16:56:32;2.10;99.90
4056;DHT22;2043;52.184;8.690;2022-12-05T16:59:03;2.10;99.90
4056;DHT22;2043;52.184;8.690;2022-12-05T17:01:31;2.10;99.90
4056;DHT22;2043;52.184;8.690;2022-12-05T17:04:04;2.10;99.90
4056;DHT22;2043;52.184;8.690;2022-12-05T17:06:33;2.20;99.90
4056;DHT22;2043;52.184;8.690;2022-12-05T17:09:00;2.30;99.90
4056;DHT22;2043;52.184;8.690;2022-12-05T17:11:30;2.20;99.90
4056;DHT22;2043;52.184;8.690;2022-12-05T17:14:00;2.30;99.90
4056;DHT22;2043;52.184;8.690;2022-12-05T17:18:54;2.10;99.90
4056;DHT22;2043;52.184;8.690;2022-12-05T17:21:24;2.00;99.90
4056;DHT22;2043;52.184;8.690;2022-12-05T17:23:51;2.00;99.90
4056;DHT22;2043;52.184;8.690;2022-12-05T17:26:20;2.10;99.90
4056;DHT22;2043;52.184;8.690;2022-12-05T17:28:47;2.10;99.90
4056;DHT22;2043;52.184;8.690;2022-12-05T17:31:22;2.10;99.90
4056;DHT22;2043;52.184;8.690;2022-12-05T17:33:51;2.00;99.90
4056;DHT22;2043;52.184;8.690;2022-12-05T17:36:21;2.10;99.90
4056;DHT22;2043;52.184;8.690;2022-12-05T17:38:48;2.20;99.90
4056;DHT22;2043;52.184;8.690;2022-12-05T17:41:21;2.10;99.90
4056;DHT22;2043;52.184;8.690;2022-12-05T17:43:49;2.10;99.90
4056;DHT22;2043;52.184;8.690;2022-12-05T17:46:20;2.10;99.90
4056;DHT22;2043;52.184;8.690;2022-12-05T17:48:50;2.20;99.90
4056;DHT22;2043;52.184;8.690;2022-12-05T17:51:18;2.10;99.90
4056;DHT22;2043;52.184;8.690;2022-12-05T17:53:45;2.10;99.90
4056;DHT22;2043;52.184;8.690;2022-12-05T17:56:13;2.20;99.90
4056;DHT22;2043;52.184;8.690;2022-12-05T17:58:40;2.10;99.90
4056;DHT22;2043;52.184;8.690;2022-12-05T18:01:13;2.30;99.90
4056;DHT22;2043;52.184;8.690;2022-12-05T18:06:08;2.10;99.90
4056;DHT22;2043;52.184;8.690;2022-12-05T18:08:35;2.10;99.90
4056;DHT22;2043;52.184;8.690;2022-12-05T18:11:05;2.10;99.90
4056;DHT22;2043;52.184;8.690;2022-12-05T18:13:32;2.00;99.90
4056;DHT22;2043;52.184;8.690;2022-12-05T18:16:00;2.10;99.90
4056;DHT22;2043;52.184;8.690;2022-12-05T18:18:28;2.10;99.90
4056;DHT22;2043;52.184;8.690;2022-12-05T18:21:08;2.00;99.90
4056;DHT22;2043;52.184;8.690;2022-12-05T18:23:35;2.00;99.90
4056;DHT22;2043;52.184;8.690;2022-12-05T18:26:03;1.90;99.90
4056;DHT22;2043;52.184;8.690;2022-12-05T18:28:32;2.00;99.90
4056;DHT22;2043;52.184;8.690;2022-12-05T18:33:33;2.10;99.90
4056;DHT22;2043;52.184;8.690;2022-12-05T18:36:08;2.00;99.90
4056;DHT22;2043;52.184;8.690;2022-12-05T18:38:36;2.00;99.90
4056;DHT22;2043;52.184;8.690;2022-12-05T18:41:04;2.00;99.90
4056;DHT22;2043;52.184;8.690;2022-12-05T18:43:32;2.00;99.90
4056;DHT22;2043;52.184;8.690;2022-12-05T18:46:00;2.10;99.90
4056;DHT22;2043;52.184;8.690;2022-12-05T18:48:32;2.10;99.90
4056;DHT22;2043;52.184;8.690;2022-12-05T18:53:41;2.00;99.90
4056;DHT22;2043;52.184;8.690;2022-12-05T18:56:10;2.10;99.90
4056;DHT22;2043;52.184;8.690;2022-12-05T18:59:06;2.00;99.90
4056;DHT22;2043;52.184;8.690;2022-12-05T19:01:35;1.90;99.90
4056;DHT22;2043;52.184;8.690;2022-12-05T19:04:03;2.00;99.90
4056;DHT22;2043;52.184;8.690;2022-12-05T19:06:33;2.20;99.90
4056;DHT22;2043;52.184;8.690;2022-12-05T19:09:11;2.20;99.90
4056;DHT22;2043;52.184;8.690;2022-12-05T19:11:40;2.10;99.90
4056;DHT22;2043;52.184;8.690;2022-12-05T19:14:13;2.00;99.90
4056;DHT22;2043;52.184;8.690;2022-12-05T19:16:40;2.00;99.90
4056;DHT22;2043;52.184;8.690;2022-12-05T19:19:09;2.00;99.90
4056;DHT22;2043;52.184;8.690;2022-12-05T19:21:38;2.10;99.90
4056;DHT22;2043;52.184;8.690;2022-12-05T19:24:06;2.10;99.90
4056;DHT22;2043;52.184;8.690;2022-12-05T19:26:34;2.10;99.90
4056;DHT22;2043;52.184;8.690;2022-12-05T19:29:02;2.20;99.90
4056;DHT22;2043;52.184;8.690;2022-12-05T19:31:29;2.20;99.90
4056;DHT22;2043;52.184;8.690;2022-12-05T19:36:43;1.40;99.90
4056;DHT22;2043;52.184;8.690;2022-12-05T19:41:41;1.30;99.90
4056;DHT22;2043;52.184;8.690;2022-12-05T19:44:09;1.70;99.90
4056;DHT22;2043;52.184;8.690;2022-12-05T19:46:37;1.70;99.90
4056;DHT22;2043;52.184;8.690;2022-12-05T19:49:10;1.80;99.90
4056;DHT22;2043;52.184;8.690;2022-12-05T19:51:37;1.80;99.90
4056;DHT22;2043;52.184;8.690;2022-12-05T19:54:06;1.90;99.90
4056;DHT22;2043;52.184;8.690;2022-12-05T19:56:35;1.80;99.90
4056;DHT22;2043;52.184;8.690;2022-12-05T19:59:03;1.60;99.90
4056;DHT22;2043;52.184;8.690;2022-12-05T20:01:33;1.70;99.90
4056;DHT22;2043;52.184;8.690;2022-12-05T20:04:03;1.70;99.90
4056;DHT22;2043;52.184;8.690;2022-12-05T20:06:42;1.70;99.90
4056;DHT22;2043;52.184;8.690;2022-12-05T20:09:11;1.50;99.90
4056;DHT22;2043;52.184;8.690;2022-12-05T20:14:09;1.50;99.90
4056;DHT22;2043;52.184;8.690;2022-12-05T20:16:42;1.80;99.90
4056;DHT22;2043;52.184;8.690;2022-12-05T20:26:54;1.70;99.90
4056;DHT22;2043;52.184;8.690;2022-12-05T20:36:59;1.90;99.90
4056;DHT22;2043;52.184;8.690;2022-12-05T20:51:54;2.10;99.90
4056;DHT22;2043;52.184;8.690;2022-12-05T20:54:25;2.10;99.90
4056;DHT22;2043;52.184;8.690;2022-12-05T20:59:25;1.90;99.90
4056;DHT22;2043;52.184;8.690;2022-12-05T21:04:23;2.00;99.90
4056;DHT22;2043;52.184;8.690;2022-12-05T21:06:51;2.00;99.90
4056;DHT22;2043;52.184;8.690;2022-12-05T21:09:21;2.00;99.90
4056;DHT22;2043;52.184;8.690;2022-12-05T21:11:57;2.00;99.90
4056;DHT22;2043;52.184;8.690;2022-12-05T21:19:22;2.00;99.90
4056;DHT22;2043;52.184;8.690;2022-12-05T21:21:49;2.10;99.90
4056;DHT22;2043;52.184;8.690;2022-12-05T21:31:42;2.10;99.90
4056;DHT22;2043;52.184;8.690;2022-12-05T21:34:16;2.20;99.90
4056;DHT22;2043;52.184;8.690;2022-12-05T21:44:11;2.10;99.90
4056;DHT22;2043;52.184;8.690;2022-12-05T21:49:07;2.10;99.90